Auburndale, WI (54412)

11:36 AM CDT on March 24, 2017 (GMT -0500)
2nd St | | Change Station

Elev 1221 ft 44.64 °N, 90.10 °W | Updated 1 minute ago

Overcast
Overcast
36.5 °F
Feels Like 36 °F
N
1.0
Wind Variable Wind from NE
Gusts 4.0 mph

Today
High -- | Low -- °F
--% Chance of Precip.
Yesterday
High -- | Low -- °F
Precip. -- in
Pressure 29.93 in
Visibility 2.5 miles
Clouds Scattered Clouds 700 ft
Mostly Cloudy 1500 ft
Overcast 3000 ft
Windchill 36 °F
Dew Point 31 °F
Humidity 80%
Rainfall 0.56 in
Snow Depth Not available.
6:55 AM 7:17 PM
Waning Crescent, 14% visible
SPECI KMFI 241630Z AUTO 07007KT 2 1/2SM -RA BR SCT007 BKN015 OVC030 03/02 A2993 RMK AO2 RAB14 P0000 T00280022
Pressure 29.93 in
Visibility 2.5 miles
Clouds Scattered Clouds 700 ft
Mostly Cloudy 1500 ft
Overcast 3000 ft
Windchill 36 °F
Dew Point 31 °F
Humidity 80%
Rainfall 0.56 in
Snow Depth Not available.
6:55 AM 7:17 PM
Waning Crescent, 14% visible
SPECI KMFI 241630Z AUTO 07007KT 2 1/2SM -RA BR SCT007 BKN015 OVC030 03/02 A2993 RMK AO2 RAB14 P0000 T00280022

Get Severe Weather Alerts

Thanks for signing up!

Be on the lookout for a verification email in your inbox.

You'll start receiving the daily forecast at 8 AM.

×

10-Day Weather Forecast

Almanac

Astronomy

Mar. 24, 2017 Rise Set
Actual Time
Civil Twilight
Nautical Twilight
Astronomical Twilight
Moon
Length of Visible Light
Length of Day
Tomorrow will be .
, % of the Moon is Illuminated

Today's Extremes

State Highs State Lows

Community

WunderPhotos

Upload Photos

1,962,540 photos uploaded!

WunderBlog® & News

Nearby

Air Quality

  Air Quality AQ Index Pollutant
Not available.

Snow Depth

Station Depth Elevation

Earthquake Activity

City Distance Mag. Time & Date
Minimum magnitude displayed is 2.5.

Earthquake Activity

City Distance Mag. Time & Date
Minimum magnitude displayed is 2.5.

Coastal Water Temperatures

Place Temperature

Stations

Nearby Weather Stations

Station Location Temp. Windchill Dew Point Humidity Wind Precip. Elev Updated Type
                   

Watches & Warnings

There are currently no watches in effect.